createdAt,value
2023-04-15T00:00:26.592Z,93.10
2023-04-15T00:01:26.576Z,92.99
2023-04-15T00:02:26.693Z,92.99
2023-04-15T00:03:26.873Z,92.99
2023-04-15T00:04:26.720Z,92.89
2023-04-15T00:05:26.543Z,92.89
2023-04-15T00:06:26.524Z,92.89
2023-04-15T00:07:26.540Z,92.89
2023-04-15T00:08:26.503Z,92.89
2023-04-15T00:09:26.504Z,92.89
2023-04-15T00:10:26.482Z,92.89
2023-04-15T00:11:26.493Z,92.89
2023-04-15T00:12:26.450Z,92.79
2023-04-15T00:13:26.444Z,92.79
2023-04-15T00:14:26.432Z,92.79
2023-04-15T00:15:26.426Z,92.69
2023-04-15T00:16:26.434Z,92.83
2023-04-15T00:17:26.448Z,92.83
2023-04-15T00:18:26.389Z,92.79
2023-04-15T00:19:26.378Z,92.79
2023-04-15T00:20:26.364Z,92.79
2023-04-15T00:21:26.361Z,92.79
2023-04-15T00:22:26.348Z,92.79
2023-04-15T00:23:26.381Z,92.79
2023-04-15T00:24:26.322Z,92.79
2023-04-15T00:25:26.317Z,92.79
2023-04-15T00:26:26.301Z,92.73
2023-04-15T00:27:26.293Z,92.73
2023-04-15T00:28:26.285Z,92.73
2023-04-15T00:29:26.264Z,92.83
2023-04-15T00:30:26.255Z,92.83
2023-04-15T00:31:26.305Z,92.73
2023-04-15T00:32:26.302Z,92.73
2023-04-15T00:33:26.228Z,92.79
2023-04-15T00:34:26.208Z,92.69
2023-04-15T00:35:26.201Z,92.69
2023-04-15T00:36:26.191Z,92.79
2023-04-15T00:37:26.175Z,92.79
2023-04-15T00:38:26.162Z,92.69
2023-04-15T00:39:26.167Z,92.69
2023-04-15T00:40:26.148Z,92.59
2023-04-15T00:41:26.135Z,92.59
2023-04-15T00:42:26.123Z,92.69
2023-04-15T00:43:26.107Z,92.69
2023-04-15T00:44:26.098Z,92.69
2023-04-15T00:45:26.102Z,92.69
2023-04-15T00:46:26.067Z,92.48
2023-04-15T00:47:26.162Z,92.48
2023-04-15T00:48:26.053Z,92.48
2023-04-15T00:49:26.042Z,92.48
2023-04-15T00:50:26.040Z,92.38
2023-04-15T00:51:26.035Z,92.52
2023-04-15T00:52:26.015Z,92.52
2023-04-15T00:53:26.018Z,92.52
2023-04-15T00:54:25.988Z,92.63
2023-04-15T00:55:26.103Z,92.73
2023-04-15T00:56:25.964Z,92.63
2023-04-15T00:57:25.948Z,92.73
2023-04-15T00:58:25.944Z,92.73
2023-04-15T00:59:25.923Z,92.73
2023-04-15T01:00:25.924Z,92.73
2023-04-15T01:01:25.927Z,92.83
2023-04-15T01:02:26.036Z,92.83
2023-04-15T01:03:26.131Z,92.83
2023-04-15T01:04:25.967Z,92.93
2023-04-15T01:05:25.863Z,93.04
2023-04-15T01:06:25.856Z,93.04
2023-04-15T01:07:25.832Z,93.14
2023-04-15T01:08:25.834Z,93.14
2023-04-15T01:09:25.818Z,93.14
2023-04-15T01:10:25.812Z,93.24
2023-04-15T01:11:25.845Z,93.24
2023-04-15T01:12:25.790Z,93.24
2023-04-15T01:13:25.764Z,93.34
2023-04-15T01:14:25.759Z,93.34
2023-04-15T01:15:25.752Z,93.45
2023-04-15T01:16:25.778Z,93.55
2023-04-15T01:17:25.784Z,93.55
2023-04-15T01:18:25.718Z,93.55
2023-04-15T01:19:25.701Z,93.45
2023-04-15T01:20:25.694Z,93.45
2023-04-15T01:21:25.682Z,93.55
2023-04-15T01:22:25.673Z,93.55
2023-04-15T01:23:25.659Z,93.55
2023-04-15T01:24:25.646Z,93.55
2023-04-15T01:25:25.643Z,93.55
2023-04-15T01:26:25.625Z,93.55
2023-04-15T01:27:25.639Z,93.55
2023-04-15T01:28:25.611Z,93.45
2023-04-15T01:29:25.587Z,93.45
2023-04-15T01:30:25.582Z,93.45
2023-04-15T01:31:25.633Z,93.45
2023-04-15T01:32:25.596Z,93.45
2023-04-15T01:33:25.547Z,93.45
2023-04-15T01:34:25.525Z,93.45
2023-04-15T01:35:25.525Z,93.45
2023-04-15T01:36:25.507Z,93.49
2023-04-15T01:37:25.495Z,93.59
2023-04-15T01:38:25.492Z,93.55
2023-04-15T01:39:25.480Z,93.55
2023-04-15T01:40:25.470Z,93.55
2023-04-15T01:41:25.450Z,93.55
2023-04-15T01:42:25.446Z,93.65
2023-04-15T01:43:25.453Z,93.65
2023-04-15T01:44:25.424Z,93.65
2023-04-15T01:45:25.415Z,93.65
2023-04-15T01:46:25.458Z,93.75
2023-04-15T01:47:25.402Z,93.75
2023-04-15T01:48:25.382Z,93.65
2023-04-15T01:49:25.412Z,93.65
2023-04-15T01:50:25.361Z,93.65
2023-04-15T01:51:25.351Z,93.65
2023-04-15T01:52:25.347Z,93.65
2023-04-15T01:53:25.330Z,93.65
2023-04-15T01:54:25.311Z,93.65
2023-04-15T01:55:25.303Z,93.65
2023-04-15T01:56:25.323Z,93.65
2023-04-15T01:57:25.307Z,93.65
2023-04-15T01:58:25.276Z,93.65
2023-04-15T01:59:25.294Z,93.65
2023-04-15T02:00:25.253Z,93.65
2023-04-15T02:01:25.307Z,93.65
2023-04-15T02:02:25.389Z,93.65
2023-04-15T02:03:25.282Z,93.65
2023-04-15T02:04:25.216Z,93.65
2023-04-15T02:05:25.197Z,93.65
2023-04-15T02:06:25.176Z,93.65
2023-04-15T02:07:25.173Z,93.65
2023-04-15T02:08:25.166Z,93.65
2023-04-15T02:09:25.141Z,93.65
2023-04-15T02:10:25.145Z,93.65
2023-04-15T02:11:25.125Z,93.65
2023-04-15T02:12:25.115Z,93.65
2023-04-15T02:13:25.100Z,93.65
2023-04-15T02:14:25.092Z,93.65
2023-04-15T02:15:25.117Z,93.65
2023-04-15T02:16:25.104Z,93.65
2023-04-15T02:17:25.087Z,93.65
2023-04-15T02:18:25.043Z,93.55
2023-04-15T02:19:25.038Z,93.65
2023-04-15T02:20:25.024Z,93.45
2023-04-15T02:21:25.015Z,93.45
2023-04-15T02:22:24.998Z,93.55
2023-04-15T02:23:25.000Z,93.45
2023-04-15T02:24:24.982Z,93.45
2023-04-15T02:25:24.966Z,93.34
2023-04-15T02:26:24.961Z,93.30
2023-04-15T02:27:24.949Z,93.30
2023-04-15T02:28:24.935Z,93.30
2023-04-15T02:29:24.918Z,93.30
2023-04-15T02:30:24.912Z,93.20
2023-04-15T02:31:24.989Z,93.20
2023-04-15T02:32:25.059Z,93.20
2023-04-15T02:33:24.880Z,93.10
2023-04-15T02:34:24.863Z,93.14
2023-04-15T02:35:24.857Z,93.14
2023-04-15T02:36:24.850Z,93.14
2023-04-15T02:37:24.839Z,93.10
2023-04-15T02:38:24.838Z,93.10
2023-04-15T02:39:24.819Z,93.14
2023-04-15T02:40:24.802Z,93.14
2023-04-15T02:41:24.784Z,93.14
2023-04-15T02:42:24.779Z,93.10
2023-04-15T02:43:24.768Z,93.04
2023-04-15T02:44:24.757Z,93.14
2023-04-15T02:45:24.737Z,93.14
2023-04-15T02:46:24.865Z,93.14
2023-04-15T02:47:24.774Z,92.99
2023-04-15T02:48:24.714Z,92.99
2023-04-15T02:49:24.701Z,92.99
2023-04-15T02:50:24.693Z,93.04
2023-04-15T02:51:24.678Z,93.04
2023-04-15T02:52:24.660Z,92.99
2023-04-15T02:53:24.647Z,92.99
2023-04-15T02:54:24.637Z,92.99
2023-04-15T02:55:24.631Z,92.99
2023-04-15T02:56:24.624Z,92.93
2023-04-15T02:57:24.611Z,93.04
2023-04-15T02:58:24.596Z,93.04
2023-04-15T02:59:24.579Z,93.04
2023-04-15T03:00:24.573Z,93.04
2023-04-15T03:01:24.595Z,93.04
2023-04-15T03:02:24.848Z,93.04
2023-04-15T03:03:24.700Z,93.10
2023-04-15T03:04:24.537Z,93.10
2023-04-15T03:05:24.516Z,93.14
2023-04-15T03:06:24.508Z,93.14
2023-04-15T03:07:24.508Z,93.20
2023-04-15T03:08:24.509Z,93.10
2023-04-15T03:09:24.470Z,93.10
2023-04-15T03:10:24.452Z,93.10
2023-04-15T03:11:24.455Z,93.10
2023-04-15T03:12:24.441Z,93.10
2023-04-15T03:13:24.420Z,93.20
2023-04-15T03:14:24.420Z,93.10
2023-04-15T03:15:24.406Z,93.10
2023-04-15T03:16:24.392Z,93.10
2023-04-15T03:17:24.391Z,93.10
2023-04-15T03:18:24.373Z,93.20
2023-04-15T03:19:24.376Z,93.20
2023-04-15T03:20:24.379Z,93.20
2023-04-15T03:21:24.337Z,93.10
2023-04-15T03:22:24.326Z,92.99
2023-04-15T03:23:24.314Z,92.99
2023-04-15T03:24:24.304Z,92.89
2023-04-15T03:25:24.291Z,92.89
2023-04-15T03:26:24.275Z,92.79
2023-04-15T03:27:24.274Z,92.79
2023-04-15T03:28:24.264Z,92.69
2023-04-15T03:29:24.239Z,92.79
2023-04-15T03:30:24.233Z,92.79
2023-04-15T03:31:24.300Z,92.69
2023-04-15T03:32:24.242Z,92.69
2023-04-15T03:33:24.211Z,92.69
2023-04-15T03:34:24.193Z,92.69
2023-04-15T03:35:24.206Z,92.69
2023-04-15T03:36:24.183Z,92.69
2023-04-15T03:37:24.158Z,92.59
2023-04-15T03:38:24.142Z,92.59
2023-04-15T03:39:24.138Z,92.48
2023-04-15T03:40:24.121Z,92.38
2023-04-15T03:41:24.129Z,92.34
2023-04-15T03:42:24.097Z,92.23
2023-04-15T03:43:24.091Z,92.13
2023-04-15T03:44:24.080Z,92.13
2023-04-15T03:45:24.072Z,92.13
2023-04-15T03:46:24.110Z,92.13
2023-04-15T03:47:24.081Z,92.13
2023-04-15T03:48:24.097Z,92.13
2023-04-15T03:49:24.026Z,92.13
2023-04-15T03:50:24.015Z,92.13
2023-04-15T03:51:24.027Z,92.13
2023-04-15T03:52:23.990Z,92.13
2023-04-15T03:53:23.996Z,92.13
2023-04-15T03:54:23.975Z,92.23
2023-04-15T03:55:23.951Z,92.23
2023-04-15T03:56:23.945Z,92.27
2023-04-15T03:57:25.928Z,92.23
2023-04-15T03:58:23.933Z,92.23
2023-04-15T03:59:23.910Z,92.23
2023-04-15T04:00:23.920Z,92.23
2023-04-15T04:01:23.892Z,92.23
2023-04-15T04:02:24.076Z,92.23
2023-04-15T04:03:24.153Z,92.23
2023-04-15T04:04:23.929Z,92.13
2023-04-15T04:05:23.839Z,92.13
2023-04-15T04:06:23.829Z,92.13
2023-04-15T04:07:23.844Z,92.23
2023-04-15T04:08:23.810Z,92.13
2023-04-15T04:09:23.799Z,92.23
2023-04-15T04:10:23.790Z,92.13
2023-04-15T04:11:23.776Z,92.13
2023-04-15T04:12:23.770Z,92.13
2023-04-15T04:13:23.757Z,92.13
2023-04-15T04:14:25.738Z,92.03
2023-04-15T04:15:25.762Z,92.03
2023-04-15T04:16:23.784Z,91.93
2023-04-15T04:17:23.711Z,91.93
2023-04-15T04:18:25.714Z,91.82
2023-04-15T04:19:23.681Z,91.82
2023-04-15T04:20:23.678Z,91.82
2023-04-15T04:21:23.657Z,91.82
2023-04-15T04:22:23.652Z,91.72
2023-04-15T04:23:23.673Z,91.82
2023-04-15T04:24:23.636Z,91.82
2023-04-15T04:25:25.614Z,91.82
2023-04-15T04:26:23.609Z,91.82
2023-04-15T04:27:23.587Z,91.82
2023-04-15T04:28:25.590Z,91.93
2023-04-15T04:29:23.588Z,91.82
2023-04-15T04:30:23.563Z,91.82
2023-04-15T04:31:23.603Z,91.82
2023-04-15T04:32:23.551Z,91.82
2023-04-15T04:33:23.524Z,91.82
2023-04-15T04:34:23.531Z,91.72
2023-04-15T04:35:23.511Z,91.72
2023-04-15T04:36:25.497Z,91.68
2023-04-15T04:37:23.477Z,91.68
2023-04-15T04:38:23.463Z,91.58
2023-04-15T04:39:25.480Z,91.58
2023-04-15T04:40:23.455Z,91.58
2023-04-15T04:41:23.437Z,91.47
2023-04-15T04:42:23.419Z,91.37
2023-04-15T04:43:23.407Z,91.37
2023-04-15T04:44:23.398Z,91.37
2023-04-15T04:45:23.394Z,91.37
2023-04-15T04:46:23.566Z,91.37
2023-04-15T04:47:23.399Z,91.37
2023-04-15T04:48:25.356Z,91.27
2023-04-15T04:49:23.359Z,91.27
2023-04-15T04:50:23.355Z,91.17
2023-04-15T04:51:23.320Z,91.17
2023-04-15T04:52:23.321Z,91.17
2023-04-15T04:53:23.300Z,91.07
2023-04-15T04:54:23.289Z,91.07
2023-04-15T04:55:23.294Z,91.07
2023-04-15T04:56:23.265Z,91.07
2023-04-15T04:57:23.268Z,90.96
2023-04-15T04:58:23.243Z,91.07
2023-04-15T04:59:23.226Z,91.07
2023-04-15T05:00:23.220Z,91.07
2023-04-15T05:01:23.261Z,91.07
2023-04-15T05:02:23.336Z,90.96
2023-04-15T05:03:23.391Z,90.96
2023-04-15T05:04:23.173Z,90.96
2023-04-15T05:05:23.160Z,90.82
2023-04-15T05:06:23.165Z,90.82
2023-04-15T05:07:23.138Z,90.82
2023-04-15T05:08:23.129Z,90.72
2023-04-15T05:09:23.140Z,90.72
2023-04-15T05:10:23.106Z,90.72
2023-04-15T05:11:23.134Z,90.61
2023-04-15T05:12:23.087Z,90.51
2023-04-15T05:13:23.070Z,90.51
2023-04-15T05:14:23.504Z,90.41
2023-04-15T05:15:23.066Z,90.41
2023-04-15T05:16:23.236Z,90.41
2023-04-15T05:17:23.115Z,90.31
2023-04-15T05:18:23.022Z,90.31
2023-04-15T05:19:23.001Z,90.31
2023-04-15T05:20:23.005Z,90.20
2023-04-15T05:21:22.992Z,90.20
2023-04-15T05:22:22.981Z,90.20
2023-04-15T05:23:22.966Z,90.10
2023-04-15T05:24:22.962Z,90.10
2023-04-15T05:25:22.944Z,90.10
2023-04-15T05:26:22.938Z,90.10
2023-04-15T05:27:22.941Z,90.10
2023-04-15T05:28:22.902Z,90.10
2023-04-15T05:29:22.900Z,90.10
2023-04-15T05:30:22.884Z,90.10
2023-04-15T05:31:22.932Z,90.00
2023-04-15T05:32:22.907Z,90.00
2023-04-15T05:33:22.861Z,89.90
2023-04-15T05:34:22.847Z,89.90
2023-04-15T05:35:22.832Z,89.80
2023-04-15T05:36:22.815Z,89.80
2023-04-15T05:37:22.832Z,89.69
2023-04-15T05:38:22.803Z,89.69
2023-04-15T05:39:22.801Z,89.65
2023-04-15T05:40:22.783Z,89.65
2023-04-15T05:41:22.768Z,89.55
2023-04-15T05:42:22.746Z,89.55
2023-04-15T05:43:22.763Z,89.45
2023-04-15T05:44:22.740Z,89.34
2023-04-15T05:45:22.717Z,89.34
2023-04-15T05:46:22.740Z,89.24
2023-04-15T05:47:22.712Z,89.24
2023-04-15T05:48:22.684Z,89.24
2023-04-15T05:49:22.671Z,89.24
2023-04-15T05:50:22.658Z,89.24
2023-04-15T05:51:22.654Z,89.14
2023-04-15T05:52:22.641Z,89.04
2023-04-15T05:53:22.644Z,89.00
2023-04-15T05:54:22.615Z,88.89
2023-04-15T05:55:22.608Z,88.89
2023-04-15T05:56:22.588Z,88.89
2023-04-15T05:57:22.578Z,88.79
2023-04-15T05:58:22.589Z,88.69
2023-04-15T05:59:22.600Z,88.59
2023-04-15T06:00:22.570Z,88.59
2023-04-15T06:01:22.558Z,88.59
2023-04-15T06:02:22.678Z,88.59
2023-04-15T06:03:22.567Z,88.48
2023-04-15T06:04:22.566Z,88.38
2023-04-15T06:05:22.494Z,88.24
2023-04-15T06:06:22.490Z,88.14
2023-04-15T06:07:22.473Z,88.04
2023-04-15T06:08:22.485Z,87.93
2023-04-15T06:09:22.444Z,87.83
2023-04-15T06:10:22.449Z,87.83
2023-04-15T06:11:22.424Z,87.73
2023-04-15T06:12:22.421Z,87.73
2023-04-15T06:13:22.401Z,87.73
2023-04-15T06:14:22.413Z,87.63
2023-04-15T06:15:22.417Z,87.53
2023-04-15T06:16:22.368Z,87.53
2023-04-15T06:17:22.396Z,87.53
2023-04-15T06:18:22.355Z,87.53
2023-04-15T06:19:22.326Z,87.53
2023-04-15T06:20:22.330Z,87.32
2023-04-15T06:21:22.306Z,87.28
2023-04-15T06:22:22.294Z,87.07
2023-04-15T06:23:22.291Z,86.98
2023-04-15T06:24:22.283Z,86.98
2023-04-15T06:25:22.278Z,86.87
2023-04-15T06:26:22.250Z,86.87
2023-04-15T06:27:22.255Z,86.77
2023-04-15T06:28:22.229Z,86.66
2023-04-15T06:29:22.227Z,86.57
2023-04-15T06:30:23.977Z,86.57
2023-04-15T06:31:22.260Z,86.46
2023-04-15T06:32:22.212Z,86.36
2023-04-15T06:33:22.177Z,86.22
2023-04-15T06:34:22.166Z,86.12
2023-04-15T06:35:22.168Z,86.01
2023-04-15T06:36:22.147Z,86.01
2023-04-15T06:37:22.156Z,85.81
2023-04-15T06:38:22.136Z,85.61
2023-04-15T06:39:22.102Z,85.51
2023-04-15T06:40:22.097Z,85.30
2023-04-15T06:41:22.085Z,85.16
2023-04-15T06:42:22.070Z,84.96
2023-04-15T06:43:22.056Z,84.75
2023-04-15T06:44:22.050Z,84.75
2023-04-15T06:45:22.047Z,84.65
2023-04-15T06:46:22.128Z,84.44
2023-04-15T06:47:22.084Z,84.34
2023-04-15T06:48:22.005Z,84.34
2023-04-15T06:49:22.002Z,84.10
2023-04-15T06:50:21.974Z,84.00
2023-04-15T06:51:21.976Z,83.79
2023-04-15T06:52:21.958Z,83.59
2023-04-15T06:53:21.941Z,83.25
2023-04-15T06:54:21.934Z,82.84
2023-04-15T06:55:21.923Z,82.73
2023-04-15T06:56:21.915Z,82.43
2023-04-15T06:57:21.902Z,82.29
2023-04-15T06:58:21.892Z,82.18
2023-04-15T06:59:21.874Z,81.68
2023-04-15T07:00:21.863Z,81.34
2023-04-15T07:01:21.887Z,80.93
2023-04-15T07:02:21.926Z,80.48
2023-04-15T07:03:21.873Z,80.38
2023-04-15T07:04:21.847Z,79.93
2023-04-15T07:05:21.808Z,79.53
2023-04-15T07:06:21.802Z,79.32
2023-04-15T07:07:21.785Z,79.08
2023-04-15T07:08:21.787Z,78.78
2023-04-15T07:09:21.766Z,78.88
2023-04-15T07:10:22.236Z,78.78
2023-04-15T07:11:21.740Z,78.78
2023-04-15T07:12:21.729Z,78.78
2023-04-15T07:13:21.711Z,78.82
2023-04-15T07:14:21.759Z,78.92
2023-04-15T07:15:21.692Z,79.02
2023-04-15T07:16:21.726Z,78.92
2023-04-15T07:17:21.744Z,78.82
2023-04-15T07:18:21.668Z,79.02
2023-04-15T07:19:21.678Z,79.12
2023-04-15T07:20:21.642Z,79.02
2023-04-15T07:21:21.632Z,79.12
2023-04-15T07:22:21.617Z,79.12
2023-04-15T07:23:21.610Z,79.02
2023-04-15T07:24:21.588Z,78.96
2023-04-15T07:25:21.583Z,79.26
2023-04-15T07:26:21.585Z,79.46
2023-04-15T07:27:21.560Z,79.67
2023-04-15T07:28:21.551Z,79.77
2023-04-15T07:29:21.543Z,79.84
2023-04-15T07:30:21.519Z,79.84
2023-04-15T07:31:21.544Z,79.73
2023-04-15T07:32:21.548Z,79.63
2023-04-15T07:33:21.484Z,79.43
2023-04-15T07:34:21.497Z,79.67
2023-04-15T07:35:21.493Z,79.77
2023-04-15T07:36:21.451Z,79.93
2023-04-15T07:37:21.442Z,79.77
2023-04-15T07:38:21.440Z,79.16
2023-04-15T07:39:21.420Z,79.19
2023-04-15T07:40:21.418Z,79.91
2023-04-15T07:41:21.403Z,80.32
2023-04-15T07:42:21.396Z,80.41
2023-04-15T07:43:21.397Z,80.72
2023-04-15T07:44:21.368Z,80.72
2023-04-15T07:45:21.372Z,80.82
2023-04-15T07:46:21.407Z,80.72
2023-04-15T07:47:21.524Z,80.52
2023-04-15T07:48:21.339Z,80.62
2023-04-15T07:49:21.364Z,80.46
2023-04-15T07:50:21.311Z,80.66
2023-04-15T07:51:21.319Z,80.46
2023-04-15T07:52:21.288Z,80.56
2023-04-15T07:53:21.261Z,80.66
2023-04-15T07:54:21.252Z,80.70
2023-04-15T07:55:21.257Z,81.27
2023-04-15T07:56:21.228Z,81.37
2023-04-15T07:57:21.216Z,81.48
2023-04-15T07:58:21.210Z,81.68
2023-04-15T07:59:21.205Z,81.68
2023-04-15T08:00:21.182Z,81.48
2023-04-15T08:01:21.191Z,81.48
2023-04-15T08:02:21.377Z,81.37
2023-04-15T08:03:21.185Z,81.27
2023-04-15T08:04:21.214Z,80.96
2023-04-15T08:05:21.332Z,80.76
2023-04-15T08:06:21.122Z,80.56
2023-04-15T08:07:21.128Z,80.66
2023-04-15T08:08:21.095Z,80.86
2023-04-15T08:09:21.083Z,80.96
2023-04-15T08:10:21.070Z,81.07
2023-04-15T08:11:21.057Z,81.17
2023-04-15T08:12:21.052Z,81.27
2023-04-15T08:13:21.053Z,80.56
2023-04-15T08:14:21.023Z,80.66
2023-04-15T08:15:21.024Z,80.86
2023-04-15T08:16:21.049Z,80.96
2023-04-15T08:17:21.004Z,80.66
2023-04-15T08:18:20.982Z,80.66
2023-04-15T08:19:20.967Z,80.76
2023-04-15T08:20:21.028Z,80.66
2023-04-15T08:21:20.944Z,80.46
2023-04-15T08:22:22.269Z,80.56
2023-04-15T08:23:20.958Z,80.56
2023-04-15T08:24:20.910Z,80.56
2023-04-15T08:25:20.901Z,80.56
2023-04-15T08:26:20.901Z,80.66
2023-04-15T08:27:20.881Z,80.76
2023-04-15T08:28:20.862Z,80.76
2023-04-15T08:29:20.854Z,80.93
2023-04-15T08:30:20.873Z,80.93
2023-04-15T08:31:20.885Z,80.72
2023-04-15T08:32:20.844Z,80.62
2023-04-15T08:33:20.812Z,80.82
2023-04-15T08:34:20.851Z,80.93
2023-04-15T08:35:20.783Z,80.82
2023-04-15T08:36:20.775Z,80.82
2023-04-15T08:37:20.759Z,80.62
2023-04-15T08:38:20.749Z,80.72
2023-04-15T08:39:20.774Z,80.82
2023-04-15T08:40:20.721Z,80.82
2023-04-15T08:41:20.726Z,80.93
2023-04-15T08:42:20.706Z,80.82
2023-04-15T08:43:20.695Z,80.52
2023-04-15T08:44:20.678Z,80.52
2023-04-15T08:45:20.674Z,80.59
2023-04-15T08:46:20.697Z,80.68
2023-04-15T08:47:20.678Z,80.59
2023-04-15T08:48:20.633Z,80.48
2023-04-15T08:49:20.628Z,80.48
2023-04-15T08:50:20.624Z,80.59
2023-04-15T08:51:20.749Z,80.79
2023-04-15T08:52:20.584Z,80.79
2023-04-15T08:53:20.576Z,80.52
2023-04-15T08:54:20.575Z,80.52
2023-04-15T08:55:20.585Z,80.62
2023-04-15T08:56:20.606Z,80.93
2023-04-15T08:57:20.539Z,80.82
2023-04-15T08:58:20.532Z,80.72
2023-04-15T08:59:20.527Z,80.82
2023-04-15T09:00:20.505Z,80.93
2023-04-15T09:01:20.524Z,81.13
2023-04-15T09:02:20.584Z,81.43
2023-04-15T09:03:20.528Z,81.54
2023-04-15T09:04:20.503Z,81.54
2023-04-15T09:05:20.452Z,81.54
2023-04-15T09:06:20.429Z,81.34
2023-04-15T09:07:20.423Z,81.20
2023-04-15T09:08:20.453Z,81.09
2023-04-15T09:09:20.403Z,81.09
2023-04-15T09:10:20.393Z,81.09
2023-04-15T09:11:20.468Z,80.89
2023-04-15T09:12:20.363Z,80.89
2023-04-15T09:13:20.357Z,80.89
2023-04-15T09:14:20.346Z,80.99
2023-04-15T09:15:20.333Z,81.09
2023-04-15T09:16:20.377Z,80.99
2023-04-15T09:17:20.335Z,81.09
2023-04-15T09:18:20.296Z,80.99
2023-04-15T09:19:20.290Z,80.89
2023-04-15T09:20:20.283Z,80.99
2023-04-15T09:21:20.267Z,81.09
2023-04-15T09:22:20.259Z,81.20
2023-04-15T09:23:20.255Z,81.20
2023-04-15T09:24:20.234Z,81.15
2023-04-15T09:25:20.231Z,81.06
2023-04-15T09:26:20.210Z,80.75
2023-04-15T09:27:20.218Z,80.54
2023-04-15T09:28:20.186Z,80.45
2023-04-15T09:29:20.181Z,80.34
2023-04-15T09:30:20.161Z,80.54
2023-04-15T09:31:20.187Z,80.45
2023-04-15T09:32:20.144Z,80.59
2023-04-15T09:33:20.133Z,80.54
2023-04-15T09:34:20.165Z,80.68
2023-04-15T09:35:20.113Z,80.85
2023-04-15T09:36:20.095Z,80.45
2023-04-15T09:37:31.719Z,80.45
2023-04-15T09:38:20.076Z,80.45
2023-04-15T09:39:20.071Z,80.34
2023-04-15T09:40:20.048Z,80.24
2023-04-15T09:41:20.044Z,80.14
2023-04-15T09:42:20.030Z,80.04
2023-04-15T09:43:20.046Z,80.14
2023-04-15T09:44:20.000Z,80.14
2023-04-15T09:45:19.995Z,80.14
2023-04-15T09:46:20.022Z,80.24
2023-04-15T09:47:19.996Z,80.24
2023-04-15T09:48:19.964Z,80.54
2023-04-15T09:49:19.976Z,80.65
2023-04-15T09:50:19.935Z,80.65
2023-04-15T09:51:19.923Z,80.85
2023-04-15T09:52:19.911Z,80.85
2023-04-15T09:53:19.903Z,80.75
2023-04-15T09:54:19.904Z,80.65
2023-04-15T09:55:19.881Z,80.45
2023-04-15T09:56:19.877Z,80.34
2023-04-15T09:57:19.864Z,80.34
2023-04-15T09:58:19.856Z,80.54
2023-04-15T09:59:20.189Z,80.75
2023-04-15T10:00:19.836Z,80.85
2023-04-15T10:01:19.892Z,80.85
2023-04-15T10:02:20.007Z,80.95
2023-04-15T10:03:19.914Z,80.95
2023-04-15T10:04:19.868Z,81.06
2023-04-15T10:05:19.771Z,81.06
2023-04-15T10:06:19.768Z,80.95
2023-04-15T10:07:19.755Z,80.75
2023-04-15T10:08:19.743Z,80.85
2023-04-15T10:09:19.743Z,80.95
2023-04-15T10:10:19.717Z,81.15
2023-04-15T10:11:19.709Z,81.26
2023-04-15T10:12:19.700Z,81.26
2023-04-15T10:13:19.682Z,81.36
2023-04-15T10:14:19.670Z,81.15
2023-04-15T10:15:19.687Z,81.26
2023-04-15T10:16:19.739Z,81.06
2023-04-15T10:17:19.642Z,81.06
2023-04-15T10:18:19.630Z,81.36
2023-04-15T10:19:19.622Z,81.67
2023-04-15T10:20:19.607Z,81.87
2023-04-15T10:21:19.602Z,82.07
2023-04-15T10:22:19.600Z,82.07
2023-04-15T10:23:19.581Z,81.87
2023-04-15T10:24:19.572Z,81.97
2023-04-15T10:25:19.555Z,82.07
2023-04-15T10:26:19.558Z,82.17
2023-04-15T10:27:19.539Z,82.28
2023-04-15T10:28:19.515Z,82.17
2023-04-15T10:29:19.513Z,82.17
2023-04-15T10:30:19.496Z,82.28
2023-04-15T10:31:19.572Z,82.28
2023-04-15T10:32:19.503Z,82.28
2023-04-15T10:33:19.463Z,82.28
2023-04-15T10:34:19.459Z,82.28
2023-04-15T10:35:19.444Z,82.28
2023-04-15T10:36:19.431Z,82.17
2023-04-15T10:37:19.414Z,82.07
2023-04-15T10:38:19.405Z,82.17
2023-04-15T10:39:19.391Z,82.17
2023-04-15T10:40:19.379Z,82.07
2023-04-15T10:41:20.496Z,82.17
2023-04-15T10:42:19.373Z,82.17
2023-04-15T10:43:19.346Z,82.34
2023-04-15T10:44:19.342Z,82.34
2023-04-15T10:45:19.323Z,82.44
2023-04-15T10:46:19.347Z,82.34
2023-04-15T10:47:19.326Z,82.23
2023-04-15T10:48:19.298Z,82.03
2023-04-15T10:49:19.290Z,82.03
2023-04-15T10:50:19.275Z,81.93
2023-04-15T10:51:19.264Z,82.03
2023-04-15T10:52:19.269Z,81.89
2023-04-15T10:53:20.830Z,81.79
2023-04-15T10:54:19.229Z,81.69
2023-04-15T10:55:19.224Z,81.59
2023-04-15T10:56:19.203Z,81.49
2023-04-15T10:57:19.197Z,81.28
2023-04-15T10:58:19.180Z,81.18
2023-04-15T10:59:20.383Z,81.28
2023-04-15T11:00:19.162Z,81.18
2023-04-15T11:01:19.228Z,81.28
2023-04-15T11:02:19.286Z,81.18
2023-04-15T11:03:19.292Z,81.28
2023-04-15T11:04:19.186Z,81.18
2023-04-15T11:05:19.105Z,81.28
2023-04-15T11:06:19.099Z,81.18
2023-04-15T11:07:19.086Z,81.28
2023-04-15T11:08:19.068Z,81.18
2023-04-15T11:09:19.055Z,80.98
2023-04-15T11:10:19.040Z,81.12
2023-04-15T11:11:19.032Z,81.53
2023-04-15T11:12:19.040Z,81.83
2023-04-15T11:13:19.006Z,82.14
2023-04-15T11:14:18.999Z,82.03
2023-04-15T11:15:18.985Z,82.03
2023-04-15T11:16:19.000Z,82.14
2023-04-15T11:17:18.963Z,82.34
2023-04-15T11:18:18.966Z,82.44
2023-04-15T11:19:18.977Z,82.54
2023-04-15T11:20:18.937Z,82.64
2023-04-15T11:21:18.926Z,82.64
2023-04-15T11:22:18.919Z,82.44
2023-04-15T11:23:18.911Z,82.34
2023-04-15T11:24:18.897Z,82.34
2023-04-15T11:25:18.878Z,82.44
2023-04-15T11:26:18.885Z,82.44
2023-04-15T11:27:18.851Z,82.34
2023-04-15T11:28:18.848Z,82.54
2023-04-15T11:29:18.843Z,82.64
2023-04-15T11:30:18.818Z,82.75
2023-04-15T11:31:18.861Z,82.95
2023-04-15T11:32:18.934Z,82.68
2023-04-15T11:33:18.875Z,82.68
2023-04-15T11:34:18.778Z,82.89
2023-04-15T11:35:18.797Z,82.98
2023-04-15T11:36:18.757Z,83.15
2023-04-15T11:37:18.745Z,83.05
2023-04-15T11:38:18.735Z,82.75
2023-04-15T11:39:18.723Z,82.64
2023-04-15T11:40:18.719Z,82.75
2023-04-15T11:41:18.691Z,82.64
2023-04-15T11:42:18.728Z,82.54
2023-04-15T11:43:18.721Z,82.54
2023-04-15T11:44:18.661Z,82.78
2023-04-15T11:45:18.670Z,82.89
2023-04-15T11:46:18.690Z,83.09
2023-04-15T11:47:18.653Z,83.19
2023-04-15T11:48:18.628Z,83.15
2023-04-15T11:49:18.608Z,83.05
2023-04-15T11:50:18.610Z,82.95
2023-04-15T11:51:18.617Z,82.95
2023-04-15T11:52:18.583Z,83.05
2023-04-15T11:53:18.565Z,82.95
2023-04-15T11:54:18.563Z,82.75
2023-04-15T11:55:18.553Z,82.75
2023-04-15T11:56:18.536Z,82.75
2023-04-15T11:57:18.534Z,82.75
2023-04-15T11:58:18.523Z,82.84
2023-04-15T11:59:18.502Z,82.64
2023-04-15T12:00:18.492Z,82.64
2023-04-15T12:01:18.478Z,82.95
2023-04-15T12:02:18.641Z,82.95
2023-04-15T12:03:18.694Z,83.15
2023-04-15T12:04:20.045Z,83.36
2023-04-15T12:05:18.585Z,83.45
2023-04-15T12:06:18.420Z,83.36
2023-04-15T12:07:18.445Z,83.45
2023-04-15T12:08:18.408Z,83.45
2023-04-15T12:09:18.403Z,83.45
2023-04-15T12:10:18.396Z,83.56
2023-04-15T12:11:18.360Z,83.45
2023-04-15T12:12:18.346Z,83.45
2023-04-15T12:13:18.345Z,83.56
2023-04-15T12:14:18.335Z,83.76
2023-04-15T12:15:18.323Z,83.76
2023-04-15T12:16:18.427Z,83.56
2023-04-15T12:17:18.324Z,83.56
2023-04-15T12:18:18.477Z,83.56
2023-04-15T12:19:18.270Z,83.56
2023-04-15T12:20:18.266Z,83.45
2023-04-15T12:21:18.244Z,83.52
2023-04-15T12:22:18.328Z,83.52
2023-04-15T12:23:18.247Z,83.31
2023-04-15T12:24:18.215Z,83.31
2023-04-15T12:25:18.220Z,83.22
2023-04-15T12:26:18.188Z,83.11
2023-04-15T12:27:18.188Z,83.11
2023-04-15T12:28:18.191Z,83.11
2023-04-15T12:29:18.153Z,83.01
2023-04-15T12:30:18.158Z,83.11
2023-04-15T12:31:18.164Z,83.11
2023-04-15T12:32:18.189Z,83.11
2023-04-15T12:33:18.117Z,83.11
2023-04-15T12:34:18.101Z,83.01
2023-04-15T12:35:18.096Z,83.01
2023-04-15T12:36:18.085Z,83.11
2023-04-15T12:37:18.088Z,83.11
2023-04-15T12:38:18.070Z,83.01
2023-04-15T12:39:18.068Z,83.11
2023-04-15T12:40:18.033Z,83.11
2023-04-15T12:41:18.028Z,83.01
2023-04-15T12:42:18.023Z,83.01
2023-04-15T12:43:18.011Z,82.91
2023-04-15T12:44:17.987Z,82.81
2023-04-15T12:45:17.978Z,82.87
2023-04-15T12:46:18.050Z,82.77
2023-04-15T12:47:17.994Z,82.77
2023-04-15T12:48:17.945Z,82.67
2023-04-15T12:49:17.943Z,82.56
2023-04-15T12:50:17.933Z,82.36
2023-04-15T12:51:17.935Z,82.06
2023-04-15T12:52:17.900Z,81.95